sensor_id;sensor_type;location;lat;lon;timestamp;pressure;altitude;pressure_sealevel;temperature;humidity
3590;BME280;1809;48.470;9.226;2023-05-07T00:00:00;-16616.03;;;16.05;100.00
3590;BME280;1809;48.470;9.226;2023-05-07T00:02:25;-16612.41;;;15.92;100.00
3590;BME280;1809;48.470;9.226;2023-05-07T00:04:51;-16613.50;;;15.96;100.00
3590;BME280;1809;48.470;9.226;2023-05-07T00:07:17;-16612.09;;;15.91;100.00
3590;BME280;1809;48.470;9.226;2023-05-07T00:09:42;-16610.16;;;15.84;100.00
3590;BME280;1809;48.470;9.226;2023-05-07T00:12:08;-16611.56;;;15.89;100.00
3590;BME280;1809;48.470;9.226;2023-05-07T00:14:33;-16607.91;;;15.76;100.00
3590;BME280;1809;48.470;9.226;2023-05-07T00:16:58;-16608.19;;;15.77;100.00
3590;BME280;1809;48.470;9.226;2023-05-07T00:19:24;-16608.06;;;15.77;100.00
3590;BME280;1809;48.470;9.226;2023-05-07T00:21:49;-16608.75;;;15.79;100.00
3590;BME280;1809;48.470;9.226;2023-05-07T00:24:15;-16606.78;;;15.72;100.00
3590;BME280;1809;48.470;9.226;2023-05-07T00:26:40;-16605.66;;;15.68;100.00
3590;BME280;1809;48.470;9.226;2023-05-07T00:29:05;-16607.06;;;15.73;100.00
3590;BME280;1809;48.470;9.226;2023-05-07T00:31:31;-16608.47;;;15.78;100.00
3590;BME280;1809;48.470;9.226;2023-05-07T00:33:56;-16607.75;;;15.76;100.00
3590;BME280;1809;48.470;9.226;2023-05-07T00:36:21;-16608.19;;;15.77;100.00
3590;BME280;1809;48.470;9.226;2023-05-07T00:38:46;-16607.63;;;15.75;100.00
3590;BME280;1809;48.470;9.226;2023-05-07T00:41:12;-16610.00;;;15.84;100.00
3590;BME280;1809;48.470;9.226;2023-05-07T00:43:37;-16611.00;;;15.87;100.00
3590;BME280;1809;48.470;9.226;2023-05-07T00:46:02;-16609.31;;;15.81;100.00
3590;BME280;1809;48.470;9.226;2023-05-07T00:48:28;-16610.16;;;15.84;100.00
3590;BME280;1809;48.470;9.226;2023-05-07T00:50:53;-16608.19;;;15.77;100.00
3590;BME280;1809;48.470;9.226;2023-05-07T00:53:19;-16608.75;;;15.79;100.00
3590;BME280;1809;48.470;9.226;2023-05-07T00:55:45;-13785.75;;;15.62;100.00
3590;BME280;1809;48.470;9.226;2023-05-07T00:58:11;6493.13;;;15.48;100.00
3590;BME280;1809;48.470;9.226;2023-05-07T01:00:36;26708.38;;;15.45;100.00
3590;BME280;1809;48.470;9.226;2023-05-07T01:03:01;31444.59;;;15.48;100.00
3590;BME280;1809;48.470;9.226;2023-05-07T01:05:27;35504.50;;;15.41;100.00
3590;BME280;1809;48.470;9.226;2023-05-07T01:07:53;26031.28;;;15.42;100.00
3590;BME280;1809;48.470;9.226;2023-05-07T01:10:20;452.19;;;15.62;100.00
3590;BME280;1809;48.470;9.226;2023-05-07T01:12:48;-4239.75;;;15.63;100.00
3590;BME280;1809;48.470;9.226;2023-05-07T01:15:15;10193.03;;;15.66;100.00
3590;BME280;1809;48.470;9.226;2023-05-07T01:17:41;20971.25;;;15.54;100.00
3590;BME280;1809;48.470;9.226;2023-05-07T01:20:08;22992.97;;;15.45;100.00
3590;BME280;1809;48.470;9.226;2023-05-07T01:22:36;7502.34;;;15.60;100.00
3590;BME280;1809;48.470;9.226;2023-05-07T01:25:03;-6248.66;;;15.64;100.00
3590;BME280;1809;48.470;9.226;2023-05-07T01:27:28;44329.00;;;15.46;100.00
3590;BME280;1809;48.470;9.226;2023-05-07T01:29:54;42625.59;;;15.38;100.00
3590;BME280;1809;48.470;9.226;2023-05-07T01:32:27;26370.44;;;15.45;100.00
3590;BME280;1809;48.470;9.226;2023-05-07T01:34:55;34486.25;;;15.37;100.00
3590;BME280;1809;48.470;9.226;2023-05-07T01:37:21;42965.50;;;15.39;100.00
3590;BME280;1809;48.470;9.226;2023-05-07T01:39:47;42625.25;;;15.38;100.00
3590;BME280;1809;48.470;9.226;2023-05-07T01:42:13;64069.88;;;15.25;100.00
3590;BME280;1809;48.470;9.226;2023-05-07T01:44:38;76370.16;;;15.08;100.00
3590;BME280;1809;48.470;9.226;2023-05-07T01:47:05;81504.69;;;15.00;100.00
3590;BME280;1809;48.470;9.226;2023-05-07T01:49:31;83211.72;;;14.93;100.00
3590;BME280;1809;48.470;9.226;2023-05-07T01:51:57;85958.22;;;14.92;100.00
3590;BME280;1809;48.470;9.226;2023-05-07T01:54:26;83551.00;;;14.90;100.00
3590;BME280;1809;48.470;9.226;2023-05-07T01:56:53;81485.44;;;14.86;100.00
3590;BME280;1809;48.470;9.226;2023-05-07T01:59:18;83203.59;;;14.87;100.00
3590;BME280;1809;48.470;9.226;2023-05-07T02:01:43;96254.69;;;14.75;100.00
3590;BME280;1809;48.470;9.226;2023-05-07T02:04:09;102105.19;;;14.68;100.00
3590;BME280;1809;48.470;9.226;2023-05-07T02:06:34;105895.41;;;14.63;100.00
3590;BME280;1809;48.470;9.226;2023-05-07T02:09:00;105543.94;;;14.60;100.00
3590;BME280;1809;48.470;9.226;2023-05-07T02:11:25;112098.56;;;14.52;100.00
3590;BME280;1809;48.470;9.226;2023-05-07T02:13:50;117260.44;;;14.35;100.00
3590;BME280;1809;48.470;9.226;2023-05-07T02:16:16;120005.13;;;14.21;100.00
3590;BME280;1809;48.470;9.226;2023-05-07T02:18:41;124135.06;;;14.06;100.00
3590;BME280;1809;48.470;9.226;2023-05-07T02:21:06;127254.50;;;14.04;100.00
3590;BME280;1809;48.470;9.226;2023-05-07T02:23:32;125216.16;;;14.25;100.00
3590;BME280;1809;48.470;9.226;2023-05-07T02:25:57;126897.91;;;13.99;100.00
3590;BME280;1809;48.470;9.226;2023-05-07T02:28:22;131399.66;;;13.92;100.00
3590;BME280;1809;48.470;9.226;2023-05-07T02:30:48;133113.75;;;13.81;100.00
3590;BME280;1809;48.470;9.226;2023-05-07T02:33:13;135543.69;;;13.79;100.00
3590;BME280;1809;48.470;9.226;2023-05-07T02:35:39;137254.16;;;13.66;100.00
3590;BME280;1809;48.470;9.226;2023-05-07T02:38:04;139336.88;;;13.64;100.00
3590;BME280;1809;48.470;9.226;2023-05-07T02:40:30;140707.81;;;13.54;100.00
3590;BME280;1809;48.470;9.226;2023-05-07T02:42:58;142449.50;;;13.54;100.00
3590;BME280;1809;48.470;9.226;2023-05-07T02:45:24;143146.44;;;13.54;100.00
3590;BME280;1809;48.470;9.226;2023-05-07T02:47:49;143848.22;;;13.56;100.00
3590;BME280;1809;48.470;9.226;2023-05-07T02:50:15;144177.75;;;13.48;100.00
3590;BME280;1809;48.470;9.226;2023-05-07T02:52:40;145197.16;;;13.37;100.00
3590;BME280;1809;48.470;9.226;2023-05-07T02:55:06;146228.59;;;13.31;100.00
3590;BME280;1809;48.470;9.226;2023-05-07T02:57:31;147246.75;;;13.19;100.00
3590;BME280;1809;48.470;9.226;2023-05-07T02:59:57;148640.56;;;13.19;100.00
3590;BME280;1809;48.470;9.226;2023-05-07T03:02:23;149298.72;;;13.03;100.00
3590;BME280;1809;48.470;9.226;2023-05-07T03:04:48;150344.03;;;13.02;100.00
3590;BME280;1809;48.470;9.226;2023-05-07T03:07:13;151718.56;;;12.93;100.00
3590;BME280;1809;48.470;9.226;2023-05-07T03:09:39;152732.78;;;12.80;100.00
3590;BME280;1809;48.470;9.226;2023-05-07T03:12:05;153799.09;;;12.88;100.00
3590;BME280;1809;48.470;9.226;2023-05-07T03:14:30;154152.09;;;12.89;100.00
3590;BME280;1809;48.470;9.226;2023-05-07T03:16:55;154139.34;;;12.84;100.00
3590;BME280;1809;48.470;9.226;2023-05-07T03:19:21;154121.47;;;12.77;100.00
3590;BME280;1809;48.470;9.226;2023-05-07T03:21:46;154814.69;;;12.75;100.00
3590;BME280;1809;48.470;9.226;2023-05-07T03:24:12;154786.44;;;12.64;100.00
3590;BME280;1809;48.470;9.226;2023-05-07T03:26:37;155471.91;;;12.59;100.00
3590;BME280;1809;48.470;9.226;2023-05-07T03:29:03;156509.13;;;12.55;100.00
3590;BME280;1809;48.470;9.226;2023-05-07T03:31:28;157558.31;;;12.56;100.00
3590;BME280;1809;48.470;9.226;2023-05-07T03:33:55;157542.66;;;12.50;100.00
3590;BME280;1809;48.470;9.226;2023-05-07T03:36:21;157880.22;;;12.45;100.00
3590;BME280;1809;48.470;9.226;2023-05-07T03:38:48;157896.00;;;12.50;100.00
3590;BME280;1809;48.470;9.226;2023-05-07T03:41:13;157890.78;;;12.48;100.00
3590;BME280;1809;48.470;9.226;2023-05-07T03:43:39;157886.84;;;12.47;100.00
3590;BME280;1809;48.470;9.226;2023-05-07T03:46:04;157869.84;;;12.40;100.00
3590;BME280;1809;48.470;9.226;2023-05-07T03:48:30;157872.47;;;12.41;100.00
3590;BME280;1809;48.470;9.226;2023-05-07T03:50:56;157867.25;;;12.39;100.00
3590;BME280;1809;48.470;9.226;2023-05-07T03:53:22;157843.66;;;12.30;100.00
3590;BME280;1809;48.470;9.226;2023-05-07T03:55:47;157834.53;;;12.26;100.00
3590;BME280;1809;48.470;9.226;2023-05-07T03:58:12;157830.59;;;12.25;100.00
3590;BME280;1809;48.470;9.226;2023-05-07T04:00:37;157812.25;;;12.18;100.00
3590;BME280;1809;48.470;9.226;2023-05-07T04:03:05;157805.72;;;12.15;100.00
3590;BME280;1809;48.470;9.226;2023-05-07T04:05:30;157835.81;;;12.27;100.00
3590;BME280;1809;48.470;9.226;2023-05-07T04:07:58;157804.41;;;12.15;100.00
3590;BME280;1809;48.470;9.226;2023-05-07T04:10:23;157804.41;;;12.15;100.00
3590;BME280;1809;48.470;9.226;2023-05-07T04:12:48;157796.56;;;12.12;100.00
3590;BME280;1809;48.470;9.226;2023-05-07T04:15:14;157801.84;;;12.14;100.00
3590;BME280;1809;48.470;9.226;2023-05-07T04:17:39;157809.69;;;12.17;100.00
3590;BME280;1809;48.470;9.226;2023-05-07T04:20:05;157810.94;;;12.17;100.00
3590;BME280;1809;48.470;9.226;2023-05-07T04:22:32;157822.75;;;12.22;100.00
3590;BME280;1809;48.470;9.226;2023-05-07T04:24:57;157831.91;;;12.25;100.00
3590;BME280;1809;48.470;9.226;2023-05-07T04:27:22;157838.44;;;12.28;100.00
3590;BME280;1809;48.470;9.226;2023-05-07T04:29:48;157855.44;;;12.34;100.00
3590;BME280;1809;48.470;9.226;2023-05-07T04:32:13;157880.31;;;12.44;100.00
3590;BME280;1809;48.470;9.226;2023-05-07T04:34:39;157916.94;;;12.58;100.00
3590;BME280;1809;48.470;9.226;2023-05-07T04:37:04;157958.81;;;12.74;100.00
3590;BME280;1809;48.470;9.226;2023-05-07T04:39:29;158045.19;;;13.08;100.00
3590;BME280;1809;48.470;9.226;2023-05-07T04:41:54;158109.47;;;13.32;100.00
3590;BME280;1809;48.470;9.226;2023-05-07T04:44:20;158112.03;;;13.33;100.00
3590;BME280;1809;48.470;9.226;2023-05-07T04:46:46;156408.47;;;13.52;100.00
3590;BME280;1809;48.470;9.226;2023-05-07T04:49:11;152660.22;;;13.91;100.00
3590;BME280;1809;48.470;9.226;2023-05-07T04:51:36;148175.47;;;14.15;100.00
3590;BME280;1809;48.470;9.226;2023-05-07T04:54:03;144488.78;;;14.80;100.00
3590;BME280;1809;48.470;9.226;2023-05-07T04:56:29;137412.63;;;15.92;100.00
3590;BME280;1809;48.470;9.226;2023-05-07T04:58:57;115634.19;;;16.76;100.00
3590;BME280;1809;48.470;9.226;2023-05-07T05:01:22;64602.72;;;17.09;100.00
3590;BME280;1809;48.470;9.226;2023-05-07T05:03:48;24752.81;;;17.30;100.00
3590;BME280;1809;48.470;9.226;2023-05-07T05:06:13;-15621.50;;;17.00;100.00
3590;BME280;1809;48.470;9.226;2023-05-07T05:08:38;6840.06;;;16.59;100.00
3590;BME280;1809;48.470;9.226;2023-05-07T05:11:04;16280.44;;;16.73;100.00
3590;BME280;1809;48.470;9.226;2023-05-07T05:13:29;20035.75;;;18.01;100.00
3590;BME280;1809;48.470;9.226;2023-05-07T05:15:55;-16678.75;;;18.32;100.00
3590;BME280;1809;48.470;9.226;2023-05-07T05:18:21;-16715.84;;;19.65;100.00
3590;BME280;1809;48.470;9.226;2023-05-07T05:20:46;-16728.84;;;20.12;100.00
3590;BME280;1809;48.470;9.226;2023-05-07T05:23:11;-16753.31;;;21.01;100.00
3590;BME280;1809;48.470;9.226;2023-05-07T05:25:37;-16743.09;;;20.64;100.00
3590;BME280;1809;48.470;9.226;2023-05-07T05:28:04;-16750.94;;;20.92;100.00
3590;BME280;1809;48.470;9.226;2023-05-07T05:30:29;-16752.31;;;20.97;100.00
3590;BME280;1809;48.470;9.226;2023-05-07T05:32:55;-16758.63;;;21.20;100.00
3590;BME280;1809;48.470;9.226;2023-05-07T05:35:20;-16757.34;;;21.15;100.00
3590;BME280;1809;48.470;9.226;2023-05-07T05:37:45;-16760.16;;;21.25;100.00
3590;BME280;1809;48.470;9.226;2023-05-07T05:40:11;-16751.34;;;20.93;100.00
3590;BME280;1809;48.470;9.226;2023-05-07T05:42:37;-16751.22;;;20.93;100.00
3590;BME280;1809;48.470;9.226;2023-05-07T05:45:02;-16752.31;;;20.97;100.00
3590;BME280;1809;48.470;9.226;2023-05-07T05:47:28;-16757.34;;;21.15;100.00
3590;BME280;1809;48.470;9.226;2023-05-07T05:49:53;-16752.03;;;20.96;100.00
3590;BME280;1809;48.470;9.226;2023-05-07T05:52:18;-16733.88;;;20.30;100.00
3590;BME280;1809;48.470;9.226;2023-05-07T05:54:44;-16723.25;;;19.92;100.00
3590;BME280;1809;48.470;9.226;2023-05-07T05:57:09;-16729.13;;;20.13;100.00
3590;BME280;1809;48.470;9.226;2023-05-07T05:59:35;-16725.50;;;20.00;100.00
3590;BME280;1809;48.470;9.226;2023-05-07T06:02:00;-16709.56;;;19.43;100.00
3590;BME280;1809;48.470;9.226;2023-05-07T06:04:25;-16721.84;;;19.87;100.00
3590;BME280;1809;48.470;9.226;2023-05-07T06:06:51;-16717.38;;;19.71;100.00
3590;BME280;1809;48.470;9.226;2023-05-07T06:09:16;-16734.59;;;20.33;100.00
3590;BME280;1809;48.470;9.226;2023-05-07T06:11:41;-16712.63;;;19.54;100.00
3590;BME280;1809;48.470;9.226;2023-05-07T06:14:07;-16724.09;;;19.95;100.00
3590;BME280;1809;48.470;9.226;2023-05-07T06:16:32;-16699.75;;;19.07;100.00
3590;BME280;1809;48.470;9.226;2023-05-07T06:18:57;-16703.66;;;19.21;100.00
3590;BME280;1809;48.470;9.226;2023-05-07T06:21:23;-16721.72;;;19.86;100.00
3590;BME280;1809;48.470;9.226;2023-05-07T06:23:48;-16727.44;;;20.07;100.00
3590;BME280;1809;48.470;9.226;2023-05-07T06:26:13;-16721.84;;;19.87;100.00
3590;BME280;1809;48.470;9.226;2023-05-07T06:28:39;-16743.38;;;20.65;100.00
3590;BME280;1809;48.470;9.226;2023-05-07T06:31:14;-16721.56;;;19.86;100.00
3590;BME280;1809;48.470;9.226;2023-05-07T06:33:40;-16739.06;;;20.49;100.00
3590;BME280;1809;48.470;9.226;2023-05-07T06:36:06;-16745.06;;;20.71;100.00
3590;BME280;1809;48.470;9.226;2023-05-07T06:38:31;-16741.16;;;20.57;100.00
3590;BME280;1809;48.470;9.226;2023-05-07T06:40:56;-16752.59;;;20.98;100.00
3590;BME280;1809;48.470;9.226;2023-05-07T06:43:22;-16759.31;;;21.22;100.00
3590;BME280;1809;48.470;9.226;2023-05-07T06:45:47;-16740.88;;;20.56;100.00
3590;BME280;1809;48.470;9.226;2023-05-07T06:48:12;-16737.22;;;20.43;100.00
3590;BME280;1809;48.470;9.226;2023-05-07T06:50:38;-16726.59;;;20.04;100.00
3590;BME280;1809;48.470;9.226;2023-05-07T06:53:03;-16717.94;;;19.73;100.00
3590;BME280;1809;48.470;9.226;2023-05-07T06:55:28;-16724.09;;;19.95;100.00
3590;BME280;1809;48.470;9.226;2023-05-07T06:57:54;-16721.56;;;19.86;100.00
3590;BME280;1809;48.470;9.226;2023-05-07T07:00:19;-16708.44;;;19.39;100.00
3590;BME280;1809;48.470;9.226;2023-05-07T07:02:45;-16713.19;;;19.56;100.00
3590;BME280;1809;48.470;9.226;2023-05-07T07:05:10;-16711.22;;;19.49;100.00
3590;BME280;1809;48.470;9.226;2023-05-07T07:07:35;-16731.09;;;20.20;100.00
3590;BME280;1809;48.470;9.226;2023-05-07T07:10:01;-16726.59;;;20.04;100.00
3590;BME280;1809;48.470;9.226;2023-05-07T07:12:28;-16742.00;;;20.60;100.00
3590;BME280;1809;48.470;9.226;2023-05-07T07:14:54;-16759.03;;;21.21;100.00
3590;BME280;1809;48.470;9.226;2023-05-07T07:17:20;-16752.59;;;20.98;100.00
3590;BME280;1809;48.470;9.226;2023-05-07T07:19:45;-16758.63;;;21.20;100.00
3590;BME280;1809;48.470;9.226;2023-05-07T07:22:11;-16774.41;;;21.77;100.00
3590;BME280;1809;48.470;9.226;2023-05-07T07:24:36;-16763.50;;;21.37;100.00
3590;BME280;1809;48.470;9.226;2023-05-07T07:27:01;-16769.66;;;21.60;100.00
3590;BME280;1809;48.470;9.226;2023-05-07T07:29:27;-16791.72;;;22.39;100.00
3590;BME280;1809;48.470;9.226;2023-05-07T07:31:52;-16812.66;;;23.15;100.00
3590;BME280;1809;48.470;9.226;2023-05-07T07:34:17;-16833.03;;;23.89;100.00
3590;BME280;1809;48.470;9.226;2023-05-07T07:36:43;-16839.72;;;24.13;100.00
3590;BME280;1809;48.470;9.226;2023-05-07T07:39:08;-16834.56;;;23.94;100.00
3590;BME280;1809;48.470;9.226;2023-05-07T07:41:33;-16839.72;;;24.13;100.00
3590;BME280;1809;48.470;9.226;2023-05-07T07:43:58;-16819.22;;;23.39;100.00
3590;BME280;1809;48.470;9.226;2023-05-07T07:46:24;-16829.97;;;23.78;100.00
3590;BME280;1809;48.470;9.226;2023-05-07T07:48:49;-16822.16;;;23.49;100.00
3590;BME280;1809;48.470;9.226;2023-05-07T07:51:14;-16815.16;;;23.24;100.00
3590;BME280;1809;48.470;9.226;2023-05-07T07:53:40;-16815.88;;;23.27;100.00
3590;BME280;1809;48.470;9.226;2023-05-07T07:56:06;-16794.22;;;22.48;100.00
3590;BME280;1809;48.470;9.226;2023-05-07T07:58:31;-16791.16;;;22.37;100.00
3590;BME280;1809;48.470;9.226;2023-05-07T08:00:56;-16785.03;;;22.15;100.00
3590;BME280;1809;48.470;9.226;2023-05-07T08:03:22;-16776.06;;;21.83;100.00
3590;BME280;1809;48.470;9.226;2023-05-07T08:05:47;-16763.50;;;21.37;100.00
3590;BME280;1809;48.470;9.226;2023-05-07T08:08:14;-16757.34;;;21.15;100.00
3590;BME280;1809;48.470;9.226;2023-05-07T08:10:40;-16760.56;;;21.27;100.00
3590;BME280;1809;48.470;9.226;2023-05-07T08:13:05;-16744.78;;;20.70;100.00
3590;BME280;1809;48.470;9.226;2023-05-07T08:15:31;-16745.06;;;20.71;100.00
3590;BME280;1809;48.470;9.226;2023-05-07T08:17:57;-16748.41;;;20.83;100.00
3590;BME280;1809;48.470;9.226;2023-05-07T08:20:23;-16744.50;;;20.69;100.00
3590;BME280;1809;48.470;9.226;2023-05-07T08:22:48;-16736.41;;;20.39;100.00
3590;BME280;1809;48.470;9.226;2023-05-07T08:25:13;-16730.25;;;20.17;100.00
3590;BME280;1809;48.470;9.226;2023-05-07T08:27:39;-16736.81;;;20.41;100.00
3590;BME280;1809;48.470;9.226;2023-05-07T08:30:05;-16733.88;;;20.30;100.00
3590;BME280;1809;48.470;9.226;2023-05-07T08:32:30;-16735.13;;;20.35;100.00
3590;BME280;1809;48.470;9.226;2023-05-07T08:34:56;-16734.44;;;20.32;100.00
3590;BME280;1809;48.470;9.226;2023-05-07T08:37:21;-16729.69;;;20.15;100.00
3590;BME280;1809;48.470;9.226;2023-05-07T08:39:46;-16735.28;;;20.35;100.00
3590;BME280;1809;48.470;9.226;2023-05-07T08:42:12;-16730.81;;;20.19;100.00
3590;BME280;1809;48.470;9.226;2023-05-07T08:44:42;-16727.72;;;20.08;100.00
3590;BME280;1809;48.470;9.226;2023-05-07T08:47:10;-16718.91;;;19.76;100.00
3590;BME280;1809;48.470;9.226;2023-05-07T08:49:36;-16722.00;;;19.88;100.00
3590;BME280;1809;48.470;9.226;2023-05-07T08:52:01;-16723.53;;;19.93;100.00
3590;BME280;1809;48.470;9.226;2023-05-07T08:54:27;-16718.09;;;19.73;100.00
3590;BME280;1809;48.470;9.226;2023-05-07T08:56:53;-16716.53;;;19.68;100.00
3590;BME280;1809;48.470;9.226;2023-05-07T08:59:18;-16718.91;;;19.76;100.00
3590;BME280;1809;48.470;9.226;2023-05-07T09:01:43;-16728.44;;;20.11;100.00
3590;BME280;1809;48.470;9.226;2023-05-07T09:04:09;-16731.34;;;20.21;100.00
3590;BME280;1809;48.470;9.226;2023-05-07T09:06:35;-16741.72;;;20.59;100.00
3590;BME280;1809;48.470;9.226;2023-05-07T09:09:01;-16747.44;;;20.79;100.00
3590;BME280;1809;48.470;9.226;2023-05-07T09:11:30;-16753.03;;;21.00;100.00
3590;BME280;1809;48.470;9.226;2023-05-07T09:13:56;-16761.00;;;21.28;100.00
3590;BME280;1809;48.470;9.226;2023-05-07T09:16:24;-16770.50;;;21.63;100.00
3590;BME280;1809;48.470;9.226;2023-05-07T09:18:54;-16783.75;;;22.11;100.00
3590;BME280;1809;48.470;9.226;2023-05-07T09:21:20;-16783.91;;;22.11;100.00
3590;BME280;1809;48.470;9.226;2023-05-07T09:23:49;-16782.09;;;22.05;100.00
3590;BME280;1809;48.470;9.226;2023-05-07T09:26:15;-16798.41;;;22.64;100.00
3590;BME280;1809;48.470;9.226;2023-05-07T09:28:41;-16798.69;;;22.65;100.00
3590;BME280;1809;48.470;9.226;2023-05-07T09:31:10;-16808.75;;;23.01;100.00
3590;BME280;1809;48.470;9.226;2023-05-07T09:33:37;-16801.34;;;22.74;100.00
3590;BME280;1809;48.470;9.226;2023-05-07T09:36:04;-16801.63;;;22.75;100.00
3590;BME280;1809;48.470;9.226;2023-05-07T09:38:30;-16803.72;;;22.83;100.00
3590;BME280;1809;48.470;9.226;2023-05-07T09:41:09;-16809.59;;;23.04;100.00
3590;BME280;1809;48.470;9.226;2023-05-07T09:43:37;-16820.75;;;23.44;100.00
3590;BME280;1809;48.470;9.226;2023-05-07T09:46:07;-16824.94;;;23.60;100.00
3590;BME280;1809;48.470;9.226;2023-05-07T09:48:37;-16819.63;;;23.40;100.00
3590;BME280;1809;48.470;9.226;2023-05-07T09:51:22;-16822.72;;;23.51;100.00
3590;BME280;1809;48.470;9.226;2023-05-07T09:53:52;-16814.34;;;23.21;100.00
3590;BME280;1809;48.470;9.226;2023-05-07T09:56:18;-16825.22;;;23.61;100.00
3590;BME280;1809;48.470;9.226;2023-05-07T09:58:45;-16831.78;;;23.84;100.00
3590;BME280;1809;48.470;9.226;2023-05-07T10:01:11;-16833.16;;;23.89;100.00
3590;BME280;1809;48.470;9.226;2023-05-07T10:03:39;-16848.09;;;24.43;100.00
3590;BME280;1809;48.470;9.226;2023-05-07T10:06:06;-16859.53;;;24.85;100.00
3590;BME280;1809;48.470;9.226;2023-05-07T10:08:33;-16860.09;;;24.87;100.00
3590;BME280;1809;48.470;9.226;2023-05-07T10:10:59;-16867.06;;;25.12;100.00
3590;BME280;1809;48.470;9.226;2023-05-07T10:13:25;-16873.19;;;25.34;100.00
3590;BME280;1809;48.470;9.226;2023-05-07T10:15:50;-16863.00;;;24.97;100.00
3590;BME280;1809;48.470;9.226;2023-05-07T10:18:16;-16855.91;;;24.72;100.00
3590;BME280;1809;48.470;9.226;2023-05-07T10:20:44;-16851.44;;;24.55;100.00
3590;BME280;1809;48.470;9.226;2023-05-07T10:23:13;-16849.50;;;24.48;100.00
3590;BME280;1809;48.470;9.226;2023-05-07T10:25:39;-16854.22;;;24.66;100.00
3590;BME280;1809;48.470;9.226;2023-05-07T10:28:08;-16857.84;;;24.79;100.00
3590;BME280;1809;48.470;9.226;2023-05-07T10:33:28;-16861.47;;;24.92;100.00
3590;BME280;1809;48.470;9.226;2023-05-07T10:35:59;-16854.38;;;24.66;100.00
3590;BME280;1809;48.470;9.226;2023-05-07T10:38:26;-16858.69;;;24.82;100.00
3590;BME280;1809;48.470;9.226;2023-05-07T10:40:52;-16852.00;;;24.57;100.00
3590;BME280;1809;48.470;9.226;2023-05-07T10:43:18;-16850.47;;;24.52;100.00
3590;BME280;1809;48.470;9.226;2023-05-07T10:45:43;-16846.69;;;24.38;100.00
3590;BME280;1809;48.470;9.226;2023-05-07T10:48:29;-16846.97;;;24.39;100.00
3590;BME280;1809;48.470;9.226;2023-05-07T10:51:18;-16851.44;;;24.55;100.00
3590;BME280;1809;48.470;9.226;2023-05-07T10:53:44;-16847.69;;;24.42;100.00
3590;BME280;1809;48.470;9.226;2023-05-07T10:58:45;-16852.41;;;24.59;100.00
3590;BME280;1809;48.470;9.226;2023-05-07T11:01:10;-16844.88;;;24.32;100.00
3590;BME280;1809;48.470;9.226;2023-05-07T11:04:16;-16840.00;;;24.14;100.00
3590;BME280;1809;48.470;9.226;2023-05-07T11:17:31;-16811.41;;;23.11;100.00
3590;BME280;1809;48.470;9.226;2023-05-07T11:20:00;-16806.53;;;22.93;100.00
3590;BME280;1809;48.470;9.226;2023-05-07T11:22:36;-16805.81;;;22.90;100.00
3590;BME280;1809;48.470;9.226;2023-05-07T11:25:06;-16802.88;;;22.80;100.00
3590;BME280;1809;48.470;9.226;2023-05-07T11:27:32;-16794.50;;;22.49;100.00
3590;BME280;1809;48.470;9.226;2023-05-07T11:30:00;-16785.72;;;22.18;100.00
3590;BME280;1809;48.470;9.226;2023-05-07T11:32:30;-16788.78;;;22.29;100.00
3590;BME280;1809;48.470;9.226;2023-05-07T11:34:57;-16786.13;;;22.19;100.00
3590;BME280;1809;48.470;9.226;2023-05-07T11:37:24;-16786.13;;;22.19;100.00
3590;BME280;1809;48.470;9.226;2023-05-07T11:40:02;-16783.63;;;22.10;100.00
3590;BME280;1809;48.470;9.226;2023-05-07T11:42:33;-16790.88;;;22.36;100.00
3590;BME280;1809;48.470;9.226;2023-05-07T11:45:00;-16795.22;;;22.52;100.00
3590;BME280;1809;48.470;9.226;2023-05-07T11:47:26;-16787.13;;;22.23;100.00
3590;BME280;1809;48.470;9.226;2023-05-07T11:49:54;-16799.81;;;22.69;100.00
3590;BME280;1809;48.470;9.226;2023-05-07T11:52:22;-16804.84;;;22.87;100.00
3590;BME280;1809;48.470;9.226;2023-05-07T11:57:16;-16805.13;;;22.88;100.00
3590;BME280;1809;48.470;9.226;2023-05-07T11:59:41;-16807.63;;;22.97;100.00
3590;BME280;1809;48.470;9.226;2023-05-07T12:02:09;-16807.91;;;22.98;100.00
3590;BME280;1809;48.470;9.226;2023-05-07T12:04:34;-16808.34;;;22.99;100.00
3590;BME280;1809;48.470;9.226;2023-05-07T12:07:00;-16800.81;;;22.72;100.00
3590;BME280;1809;48.470;9.226;2023-05-07T12:09:26;-16792.69;;;22.43;100.00
3590;BME280;1809;48.470;9.226;2023-05-07T12:11:52;-16786.69;;;22.21;100.00
3590;BME280;1809;48.470;9.226;2023-05-07T12:14:17;-16776.63;;;21.85;100.00
3590;BME280;1809;48.470;9.226;2023-05-07T12:16:43;-16774.13;;;21.76;100.00
3590;BME280;1809;48.470;9.226;2023-05-07T12:19:10;-16776.34;;;21.84;100.00
3590;BME280;1809;48.470;9.226;2023-05-07T12:21:38;-16768.13;;;21.54;100.00
3590;BME280;1809;48.470;9.226;2023-05-07T12:24:04;-16768.97;;;21.57;100.00
3590;BME280;1809;48.470;9.226;2023-05-07T12:26:30;-16767.69;;;21.53;100.00
3590;BME280;1809;48.470;9.226;2023-05-07T12:28:57;-16764.47;;;21.41;100.00
3590;BME280;1809;48.470;9.226;2023-05-07T12:31:22;-16762.94;;;21.35;100.00
3590;BME280;1809;48.470;9.226;2023-05-07T12:33:50;-16763.22;;;21.36;100.00
3590;BME280;1809;48.470;9.226;2023-05-07T12:36:15;-16763.38;;;21.37;100.00
3590;BME280;1809;48.470;9.226;2023-05-07T12:38:41;-16758.63;;;21.20;100.00
3590;BME280;1809;48.470;9.226;2023-05-07T12:41:08;-16757.63;;;21.16;100.00
3590;BME280;1809;48.470;9.226;2023-05-07T12:43:33;-16761.00;;;21.28;100.00
3590;BME280;1809;48.470;9.226;2023-05-07T12:46:01;-16761.00;;;21.28;100.00
3590;BME280;1809;48.470;9.226;2023-05-07T12:48:27;-16756.81;;;21.13;100.00
3590;BME280;1809;48.470;9.226;2023-05-07T12:50:54;-16755.81;;;21.10;100.00
3590;BME280;1809;48.470;9.226;2023-05-07T12:53:21;-16758.19;;;21.18;100.00
3590;BME280;1809;48.470;9.226;2023-05-07T12:55:49;-16757.63;;;21.16;100.00
3590;BME280;1809;48.470;9.226;2023-05-07T12:58:34;-16756.53;;;21.12;100.00
3590;BME280;1809;48.470;9.226;2023-05-07T13:01:03;-16756.38;;;21.12;100.00
3590;BME280;1809;48.470;9.226;2023-05-07T13:03:33;-16757.91;;;21.17;100.00
3590;BME280;1809;48.470;9.226;2023-05-07T13:06:03;-16752.03;;;20.96;100.00
3590;BME280;1809;48.470;9.226;2023-05-07T13:08:33;-16748.56;;;20.83;100.00
3590;BME280;1809;48.470;9.226;2023-05-07T13:11:00;-16743.38;;;20.65;100.00
3590;BME280;1809;48.470;9.226;2023-05-07T13:13:32;-16736.69;;;20.41;100.00
3590;BME280;1809;48.470;9.226;2023-05-07T13:15:58;-16718.91;;;19.76;100.00